sensor_id;sensor_type;location;lat;lon;timestamp;P1;durP1;ratioP1;P2;durP2;ratioP2
71975;SDS011;60680;52.182;5.398;2022-09-24T00:01:24;31.50;;;17.48;;
71975;SDS011;60680;52.182;5.398;2022-09-24T00:03:53;30.40;;;16.40;;
71975;SDS011;60680;52.182;5.398;2022-09-24T00:06:28;27.85;;;15.52;;
71975;SDS011;60680;52.182;5.398;2022-09-24T00:08:56;32.47;;;16.90;;
71975;SDS011;60680;52.182;5.398;2022-09-24T00:11:24;30.80;;;17.23;;
71975;SDS011;60680;52.182;5.398;2022-09-24T00:13:51;27.40;;;16.15;;
71975;SDS011;60680;52.182;5.398;2022-09-24T00:16:19;28.87;;;15.50;;
71975;SDS011;60680;52.182;5.398;2022-09-24T00:18:47;28.80;;;15.57;;
71975;SDS011;60680;52.182;5.398;2022-09-24T00:23:54;28.63;;;14.27;;
71975;SDS011;60680;52.182;5.398;2022-09-24T00:26:22;23.98;;;13.38;;
71975;SDS011;60680;52.182;5.398;2022-09-24T00:29:08;23.63;;;12.23;;
71975;SDS011;60680;52.182;5.398;2022-09-24T00:31:36;21.50;;;12.27;;
71975;SDS011;60680;52.182;5.398;2022-09-24T00:34:04;23.13;;;12.13;;
71975;SDS011;60680;52.182;5.398;2022-09-24T00:36:31;22.52;;;12.18;;
71975;SDS011;60680;52.182;5.398;2022-09-24T00:38:58;20.42;;;11.23;;
71975;SDS011;60680;52.182;5.398;2022-09-24T00:41:26;20.90;;;11.30;;
71975;SDS011;60680;52.182;5.398;2022-09-24T00:43:55;19.88;;;11.02;;
71975;SDS011;60680;52.182;5.398;2022-09-24T00:46:39;20.80;;;11.25;;
71975;SDS011;60680;52.182;5.398;2022-09-24T00:49:11;22.23;;;11.05;;
71975;SDS011;60680;52.182;5.398;2022-09-24T00:51:40;17.42;;;10.52;;
71975;SDS011;60680;52.182;5.398;2022-09-24T00:54:11;20.70;;;10.83;;
71975;SDS011;60680;52.182;5.398;2022-09-24T00:56:51;16.48;;;9.52;;
71975;SDS011;60680;52.182;5.398;2022-09-24T00:59:19;20.38;;;10.55;;
71975;SDS011;60680;52.182;5.398;2022-09-24T01:01:49;17.23;;;10.23;;
71975;SDS011;60680;52.182;5.398;2022-09-24T01:04:19;15.18;;;8.80;;
71975;SDS011;60680;52.182;5.398;2022-09-24T01:06:49;20.10;;;10.30;;
71975;SDS011;60680;52.182;5.398;2022-09-24T01:09:20;18.27;;;8.93;;
71975;SDS011;60680;52.182;5.398;2022-09-24T01:17:20;17.90;;;9.38;;
71975;SDS011;60680;52.182;5.398;2022-09-24T01:28:32;15.35;;;8.43;;
71975;SDS011;60680;52.182;5.398;2022-09-24T01:31:03;17.23;;;8.30;;
71975;SDS011;60680;52.182;5.398;2022-09-24T01:33:38;16.03;;;8.70;;
71975;SDS011;60680;52.182;5.398;2022-09-24T01:36:07;17.20;;;9.15;;
71975;SDS011;60680;52.182;5.398;2022-09-24T01:38:36;17.63;;;9.88;;
71975;SDS011;60680;52.182;5.398;2022-09-24T01:41:07;17.20;;;9.32;;
71975;SDS011;60680;52.182;5.398;2022-09-24T01:43:36;15.98;;;9.38;;
71975;SDS011;60680;52.182;5.398;2022-09-24T01:46:04;18.87;;;9.87;;
71975;SDS011;60680;52.182;5.398;2022-09-24T01:48:34;19.58;;;10.27;;
71975;SDS011;60680;52.182;5.398;2022-09-24T01:53:52;19.48;;;10.18;;
71975;SDS011;60680;52.182;5.398;2022-09-24T01:56:24;20.77;;;10.93;;
71975;SDS011;60680;52.182;5.398;2022-09-24T01:58:58;17.57;;;8.63;;
71975;SDS011;60680;52.182;5.398;2022-09-24T02:01:31;18.98;;;10.15;;
71975;SDS011;60680;52.182;5.398;2022-09-24T02:04:16;19.38;;;9.85;;
71975;SDS011;60680;52.182;5.398;2022-09-24T02:06:48;21.38;;;10.63;;
71975;SDS011;60680;52.182;5.398;2022-09-24T02:09:34;20.38;;;10.23;;
71975;SDS011;60680;52.182;5.398;2022-09-24T02:15:02;20.20;;;10.07;;
71975;SDS011;60680;52.182;5.398;2022-09-24T02:17:34;19.00;;;10.32;;
71975;SDS011;60680;52.182;5.398;2022-09-24T02:20:04;21.08;;;10.90;;
71975;SDS011;60680;52.182;5.398;2022-09-24T02:22:36;21.63;;;10.90;;
71975;SDS011;60680;52.182;5.398;2022-09-24T02:25:04;19.67;;;10.33;;
71975;SDS011;60680;52.182;5.398;2022-09-24T02:27:34;19.42;;;10.80;;
71975;SDS011;60680;52.182;5.398;2022-09-24T02:30:01;22.23;;;11.52;;
71975;SDS011;60680;52.182;5.398;2022-09-24T02:32:28;23.23;;;11.43;;
71975;SDS011;60680;52.182;5.398;2022-09-24T02:34:57;21.67;;;10.68;;
71975;SDS011;60680;52.182;5.398;2022-09-24T02:37:28;20.27;;;10.83;;
71975;SDS011;60680;52.182;5.398;2022-09-24T02:39:54;22.05;;;11.70;;
71975;SDS011;60680;52.182;5.398;2022-09-24T02:42:21;19.98;;;10.30;;
71975;SDS011;60680;52.182;5.398;2022-09-24T02:44:48;23.38;;;10.90;;
71975;SDS011;60680;52.182;5.398;2022-09-24T02:47:14;23.70;;;11.00;;
71975;SDS011;60680;52.182;5.398;2022-09-24T02:49:41;21.50;;;11.17;;
71975;SDS011;60680;52.182;5.398;2022-09-24T02:52:07;23.23;;;11.48;;
71975;SDS011;60680;52.182;5.398;2022-09-24T02:54:35;23.58;;;11.35;;
71975;SDS011;60680;52.182;5.398;2022-09-24T02:57:02;24.67;;;11.52;;
71975;SDS011;60680;52.182;5.398;2022-09-24T02:59:28;25.10;;;12.45;;
71975;SDS011;60680;52.182;5.398;2022-09-24T03:01:54;24.53;;;12.40;;
71975;SDS011;60680;52.182;5.398;2022-09-24T03:04:21;23.73;;;12.18;;
71975;SDS011;60680;52.182;5.398;2022-09-24T03:06:47;26.20;;;12.48;;
71975;SDS011;60680;52.182;5.398;2022-09-24T03:09:14;24.65;;;11.60;;
71975;SDS011;60680;52.182;5.398;2022-09-24T03:11:40;24.45;;;12.57;;
71975;SDS011;60680;52.182;5.398;2022-09-24T03:14:07;24.87;;;12.20;;
71975;SDS011;60680;52.182;5.398;2022-09-24T03:16:33;24.98;;;11.77;;
71975;SDS011;60680;52.182;5.398;2022-09-24T03:19:00;27.20;;;12.55;;
71975;SDS011;60680;52.182;5.398;2022-09-24T03:21:26;26.55;;;12.68;;
71975;SDS011;60680;52.182;5.398;2022-09-24T03:23:53;24.67;;;12.20;;
71975;SDS011;60680;52.182;5.398;2022-09-24T03:26:20;24.47;;;12.00;;
71975;SDS011;60680;52.182;5.398;2022-09-24T03:28:46;24.38;;;11.48;;
71975;SDS011;60680;52.182;5.398;2022-09-24T03:31:12;24.77;;;12.15;;
71975;SDS011;60680;52.182;5.398;2022-09-24T03:33:41;27.35;;;12.90;;
71975;SDS011;60680;52.182;5.398;2022-09-24T03:36:10;25.75;;;12.52;;
71975;SDS011;60680;52.182;5.398;2022-09-24T03:38:39;33.47;;;12.87;;
71975;SDS011;60680;52.182;5.398;2022-09-24T03:41:09;24.17;;;12.43;;
71975;SDS011;60680;52.182;5.398;2022-09-24T03:43:37;23.85;;;11.60;;
71975;SDS011;60680;52.182;5.398;2022-09-24T03:46:04;25.00;;;12.32;;
71975;SDS011;60680;52.182;5.398;2022-09-24T03:48:35;26.23;;;12.25;;
71975;SDS011;60680;52.182;5.398;2022-09-24T03:51:04;25.37;;;12.80;;
71975;SDS011;60680;52.182;5.398;2022-09-24T03:53:32;25.15;;;12.52;;
71975;SDS011;60680;52.182;5.398;2022-09-24T03:55:59;26.70;;;12.10;;
71975;SDS011;60680;52.182;5.398;2022-09-24T03:58:31;26.75;;;12.25;;
71975;SDS011;60680;52.182;5.398;2022-09-24T04:01:03;28.60;;;12.68;;
71975;SDS011;60680;52.182;5.398;2022-09-24T04:03:34;27.20;;;12.63;;
71975;SDS011;60680;52.182;5.398;2022-09-24T04:06:01;25.08;;;11.60;;
71975;SDS011;60680;52.182;5.398;2022-09-24T04:08:28;25.30;;;11.65;;
71975;SDS011;60680;52.182;5.398;2022-09-24T04:10:56;27.27;;;12.85;;
71975;SDS011;60680;52.182;5.398;2022-09-24T04:13:23;25.85;;;11.70;;
71975;SDS011;60680;52.182;5.398;2022-09-24T04:15:51;27.30;;;12.30;;
71975;SDS011;60680;52.182;5.398;2022-09-24T04:18:17;25.70;;;12.20;;
71975;SDS011;60680;52.182;5.398;2022-09-24T04:20:44;27.15;;;13.02;;
71975;SDS011;60680;52.182;5.398;2022-09-24T04:23:10;26.27;;;12.63;;
71975;SDS011;60680;52.182;5.398;2022-09-24T04:25:37;29.98;;;13.70;;
71975;SDS011;60680;52.182;5.398;2022-09-24T04:28:06;26.20;;;12.80;;
71975;SDS011;60680;52.182;5.398;2022-09-24T04:30:34;29.45;;;13.60;;
71975;SDS011;60680;52.182;5.398;2022-09-24T04:33:01;26.40;;;12.77;;
71975;SDS011;60680;52.182;5.398;2022-09-24T04:35:29;27.42;;;13.23;;
71975;SDS011;60680;52.182;5.398;2022-09-24T04:37:57;26.48;;;12.52;;
71975;SDS011;60680;52.182;5.398;2022-09-24T04:40:25;27.40;;;12.43;;
71975;SDS011;60680;52.182;5.398;2022-09-24T04:42:52;26.77;;;12.50;;
71975;SDS011;60680;52.182;5.398;2022-09-24T04:45:19;26.23;;;12.55;;
71975;SDS011;60680;52.182;5.398;2022-09-24T04:47:46;26.10;;;12.65;;
71975;SDS011;60680;52.182;5.398;2022-09-24T04:50:17;26.25;;;12.65;;
71975;SDS011;60680;52.182;5.398;2022-09-24T04:52:45;30.20;;;13.40;;
71975;SDS011;60680;52.182;5.398;2022-09-24T04:55:13;25.65;;;13.27;;
71975;SDS011;60680;52.182;5.398;2022-09-24T04:57:40;25.88;;;11.77;;
71975;SDS011;60680;52.182;5.398;2022-09-24T05:00:07;25.88;;;12.98;;
71975;SDS011;60680;52.182;5.398;2022-09-24T05:02:37;27.55;;;12.88;;
71975;SDS011;60680;52.182;5.398;2022-09-24T05:05:04;25.13;;;11.73;;
71975;SDS011;60680;52.182;5.398;2022-09-24T05:07:31;26.33;;;12.00;;
71975;SDS011;60680;52.182;5.398;2022-09-24T05:09:57;26.95;;;12.50;;
71975;SDS011;60680;52.182;5.398;2022-09-24T05:12:24;23.88;;;11.85;;
71975;SDS011;60680;52.182;5.398;2022-09-24T05:14:50;25.45;;;12.43;;
71975;SDS011;60680;52.182;5.398;2022-09-24T05:17:17;24.83;;;12.13;;
71975;SDS011;60680;52.182;5.398;2022-09-24T05:19:44;28.10;;;12.60;;
71975;SDS011;60680;52.182;5.398;2022-09-24T05:22:10;26.92;;;12.30;;
71975;SDS011;60680;52.182;5.398;2022-09-24T05:24:37;28.20;;;12.63;;
71975;SDS011;60680;52.182;5.398;2022-09-24T05:27:03;27.10;;;13.32;;
71975;SDS011;60680;52.182;5.398;2022-09-24T05:29:36;27.50;;;12.67;;
71975;SDS011;60680;52.182;5.398;2022-09-24T05:32:04;26.98;;;13.02;;
71975;SDS011;60680;52.182;5.398;2022-09-24T05:34:32;27.60;;;12.75;;
71975;SDS011;60680;52.182;5.398;2022-09-24T05:36:59;27.48;;;12.98;;
71975;SDS011;60680;52.182;5.398;2022-09-24T05:39:27;25.13;;;12.15;;
71975;SDS011;60680;52.182;5.398;2022-09-24T05:41:59;30.60;;;13.13;;
71975;SDS011;60680;52.182;5.398;2022-09-24T05:44:26;26.83;;;12.77;;
71975;SDS011;60680;52.182;5.398;2022-09-24T05:46:52;27.60;;;13.15;;
71975;SDS011;60680;52.182;5.398;2022-09-24T05:49:18;29.05;;;13.57;;
71975;SDS011;60680;52.182;5.398;2022-09-24T05:51:48;29.35;;;14.07;;
71975;SDS011;60680;52.182;5.398;2022-09-24T05:54:16;25.87;;;12.37;;
71975;SDS011;60680;52.182;5.398;2022-09-24T05:56:43;28.77;;;12.85;;
71975;SDS011;60680;52.182;5.398;2022-09-24T05:59:10;26.77;;;13.05;;
71975;SDS011;60680;52.182;5.398;2022-09-24T06:01:36;26.77;;;12.35;;
71975;SDS011;60680;52.182;5.398;2022-09-24T06:04:03;29.88;;;12.82;;
71975;SDS011;60680;52.182;5.398;2022-09-24T06:06:34;27.83;;;12.23;;
71975;SDS011;60680;52.182;5.398;2022-09-24T06:09:00;24.33;;;11.43;;
71975;SDS011;60680;52.182;5.398;2022-09-24T06:11:27;25.73;;;11.90;;
71975;SDS011;60680;52.182;5.398;2022-09-24T06:13:54;24.20;;;11.45;;
71975;SDS011;60680;52.182;5.398;2022-09-24T06:16:21;27.92;;;12.65;;
71975;SDS011;60680;52.182;5.398;2022-09-24T06:18:47;27.17;;;12.37;;
71975;SDS011;60680;52.182;5.398;2022-09-24T06:21:15;24.70;;;12.38;;
71975;SDS011;60680;52.182;5.398;2022-09-24T06:23:44;25.90;;;12.00;;
71975;SDS011;60680;52.182;5.398;2022-09-24T06:26:11;25.33;;;12.18;;
71975;SDS011;60680;52.182;5.398;2022-09-24T06:28:39;25.83;;;13.07;;
71975;SDS011;60680;52.182;5.398;2022-09-24T06:31:06;25.43;;;11.57;;
71975;SDS011;60680;52.182;5.398;2022-09-24T06:33:34;25.25;;;12.15;;
71975;SDS011;60680;52.182;5.398;2022-09-24T06:36:01;24.67;;;11.75;;
71975;SDS011;60680;52.182;5.398;2022-09-24T06:38:29;26.70;;;12.25;;
71975;SDS011;60680;52.182;5.398;2022-09-24T06:40:59;22.42;;;11.43;;
71975;SDS011;60680;52.182;5.398;2022-09-24T06:43:28;26.03;;;12.03;;
71975;SDS011;60680;52.182;5.398;2022-09-24T06:45:56;26.08;;;12.00;;
71975;SDS011;60680;52.182;5.398;2022-09-24T06:48:24;26.20;;;10.98;;
71975;SDS011;60680;52.182;5.398;2022-09-24T06:50:51;24.88;;;11.77;;
71975;SDS011;60680;52.182;5.398;2022-09-24T06:53:20;25.02;;;11.93;;
71975;SDS011;60680;52.182;5.398;2022-09-24T06:55:46;25.20;;;11.50;;
71975;SDS011;60680;52.182;5.398;2022-09-24T06:58:15;26.70;;;12.05;;
71975;SDS011;60680;52.182;5.398;2022-09-24T07:00:54;24.13;;;11.60;;
71975;SDS011;60680;52.182;5.398;2022-09-24T07:03:24;23.83;;;11.32;;
71975;SDS011;60680;52.182;5.398;2022-09-24T07:05:52;23.42;;;11.27;;
71975;SDS011;60680;52.182;5.398;2022-09-24T07:08:19;25.00;;;11.60;;
71975;SDS011;60680;52.182;5.398;2022-09-24T07:10:46;20.27;;;9.95;;
71975;SDS011;60680;52.182;5.398;2022-09-24T07:13:14;23.75;;;10.95;;
71975;SDS011;60680;52.182;5.398;2022-09-24T07:15:42;22.80;;;11.23;;
71975;SDS011;60680;52.182;5.398;2022-09-24T07:18:09;22.27;;;10.93;;
71975;SDS011;60680;52.182;5.398;2022-09-24T07:20:36;23.53;;;10.83;;
71975;SDS011;60680;52.182;5.398;2022-09-24T07:23:07;21.75;;;11.13;;
71975;SDS011;60680;52.182;5.398;2022-09-24T07:25:35;22.23;;;10.57;;
71975;SDS011;60680;52.182;5.398;2022-09-24T07:28:04;21.55;;;10.82;;
71975;SDS011;60680;52.182;5.398;2022-09-24T07:30:35;21.85;;;10.50;;
71975;SDS011;60680;52.182;5.398;2022-09-24T07:33:03;19.77;;;9.77;;
71975;SDS011;60680;52.182;5.398;2022-09-24T07:35:32;22.40;;;11.48;;
71975;SDS011;60680;52.182;5.398;2022-09-24T07:38:03;20.33;;;10.65;;
71975;SDS011;60680;52.182;5.398;2022-09-24T07:40:31;23.33;;;10.55;;
71975;SDS011;60680;52.182;5.398;2022-09-24T07:42:58;22.13;;;10.02;;
71975;SDS011;60680;52.182;5.398;2022-09-24T07:45:26;22.03;;;10.50;;
71975;SDS011;60680;52.182;5.398;2022-09-24T07:47:58;19.60;;;10.18;;
71975;SDS011;60680;52.182;5.398;2022-09-24T07:50:26;20.25;;;10.70;;
71975;SDS011;60680;52.182;5.398;2022-09-24T07:52:54;21.63;;;10.20;;
71975;SDS011;60680;52.182;5.398;2022-09-24T07:55:22;18.83;;;9.60;;
71975;SDS011;60680;52.182;5.398;2022-09-24T07:57:49;19.90;;;9.63;;
71975;SDS011;60680;52.182;5.398;2022-09-24T08:00:18;20.17;;;9.50;;
71975;SDS011;60680;52.182;5.398;2022-09-24T08:02:46;19.13;;;9.25;;
71975;SDS011;60680;52.182;5.398;2022-09-24T08:05:13;17.85;;;8.98;;
71975;SDS011;60680;52.182;5.398;2022-09-24T08:07:42;17.70;;;9.60;;
71975;SDS011;60680;52.182;5.398;2022-09-24T08:10:19;18.20;;;8.30;;
71975;SDS011;60680;52.182;5.398;2022-09-24T08:12:46;18.88;;;8.73;;
71975;SDS011;60680;52.182;5.398;2022-09-24T08:15:13;16.35;;;8.60;;
71975;SDS011;60680;52.182;5.398;2022-09-24T08:17:41;18.63;;;9.15;;
71975;SDS011;60680;52.182;5.398;2022-09-24T08:20:08;18.20;;;9.32;;
71975;SDS011;60680;52.182;5.398;2022-09-24T08:22:35;16.27;;;8.83;;
71975;SDS011;60680;52.182;5.398;2022-09-24T08:25:02;18.23;;;8.82;;
71975;SDS011;60680;52.182;5.398;2022-09-24T08:27:29;18.40;;;8.77;;
71975;SDS011;60680;52.182;5.398;2022-09-24T08:29:58;20.02;;;9.55;;
71975;SDS011;60680;52.182;5.398;2022-09-24T08:32:26;18.88;;;9.40;;
71975;SDS011;60680;52.182;5.398;2022-09-24T08:34:54;17.93;;;9.77;;
71975;SDS011;60680;52.182;5.398;2022-09-24T08:37:21;19.23;;;9.35;;
71975;SDS011;60680;52.182;5.398;2022-09-24T08:39:47;17.95;;;8.80;;
71975;SDS011;60680;52.182;5.398;2022-09-24T08:45:15;18.20;;;9.35;;
71975;SDS011;60680;52.182;5.398;2022-09-24T08:48:14;16.13;;;8.53;;
71975;SDS011;60680;52.182;5.398;2022-09-24T08:50:47;17.00;;;8.63;;
71975;SDS011;60680;52.182;5.398;2022-09-24T08:53:27;15.27;;;8.05;;
71975;SDS011;60680;52.182;5.398;2022-09-24T08:56:02;15.88;;;8.00;;
71975;SDS011;60680;52.182;5.398;2022-09-24T09:06:40;17.77;;;8.45;;
71975;SDS011;60680;52.182;5.398;2022-09-24T09:11:58;15.43;;;7.72;;
71975;SDS011;60680;52.182;5.398;2022-09-24T09:14:39;16.00;;;8.43;;
71975;SDS011;60680;52.182;5.398;2022-09-24T09:17:14;18.13;;;7.88;;
71975;SDS011;60680;52.182;5.398;2022-09-24T09:19:47;15.52;;;8.15;;
71975;SDS011;60680;52.182;5.398;2022-09-24T09:22:19;15.88;;;7.55;;
71975;SDS011;60680;52.182;5.398;2022-09-24T09:24:50;14.70;;;7.28;;
71975;SDS011;60680;52.182;5.398;2022-09-24T09:27:18;13.83;;;7.37;;
71975;SDS011;60680;52.182;5.398;2022-09-24T09:29:47;15.05;;;7.78;;
71975;SDS011;60680;52.182;5.398;2022-09-24T09:35:43;14.48;;;6.57;;
71975;SDS011;60680;52.182;5.398;2022-09-24T09:38:21;14.25;;;6.65;;
71975;SDS011;60680;52.182;5.398;2022-09-24T09:41:30;14.73;;;7.43;;
71975;SDS011;60680;52.182;5.398;2022-09-24T09:44:13;12.85;;;6.15;;
71975;SDS011;60680;52.182;5.398;2022-09-24T09:46:46;11.18;;;5.72;;
71975;SDS011;60680;52.182;5.398;2022-09-24T09:49:19;14.95;;;6.57;;
71975;SDS011;60680;52.182;5.398;2022-09-24T09:51:47;12.00;;;6.20;;
71975;SDS011;60680;52.182;5.398;2022-09-24T09:54:15;10.97;;;5.10;;
71975;SDS011;60680;52.182;5.398;2022-09-24T09:59:20;10.07;;;4.68;;
71975;SDS011;60680;52.182;5.398;2022-09-24T10:01:55;8.50;;;4.07;;
71975;SDS011;60680;52.182;5.398;2022-09-24T10:09:34;8.43;;;4.07;;
71975;SDS011;60680;52.182;5.398;2022-09-24T10:12:17;6.95;;;3.75;;
71975;SDS011;60680;52.182;5.398;2022-09-24T10:14:56;7.13;;;3.10;;
71975;SDS011;60680;52.182;5.398;2022-09-24T10:17:24;6.78;;;2.90;;
71975;SDS011;60680;52.182;5.398;2022-09-24T10:19:59;7.90;;;3.10;;
71975;SDS011;60680;52.182;5.398;2022-09-24T10:22:26;5.32;;;2.92;;
71975;SDS011;60680;52.182;5.398;2022-09-24T10:24:54;5.30;;;2.85;;
71975;SDS011;60680;52.182;5.398;2022-09-24T10:27:34;7.65;;;3.05;;
71975;SDS011;60680;52.182;5.398;2022-09-24T10:30:12;7.13;;;3.28;;
71975;SDS011;60680;52.182;5.398;2022-09-24T10:33:00;4.87;;;2.80;;
71975;SDS011;60680;52.182;5.398;2022-09-24T10:35:35;4.75;;;2.70;;
71975;SDS011;60680;52.182;5.398;2022-09-24T10:38:14;7.03;;;3.83;;
71975;SDS011;60680;52.182;5.398;2022-09-24T10:40:43;7.10;;;2.90;;
71975;SDS011;60680;52.182;5.398;2022-09-24T10:43:20;5.38;;;2.75;;
71975;SDS011;60680;52.182;5.398;2022-09-24T10:48:25;6.50;;;3.10;;
71975;SDS011;60680;52.182;5.398;2022-09-24T10:50:59;8.88;;;3.65;;
71975;SDS011;60680;52.182;5.398;2022-09-24T10:53:58;7.53;;;3.58;;
71975;SDS011;60680;52.182;5.398;2022-09-24T11:07:43;9.75;;;4.00;;
71975;SDS011;60680;52.182;5.398;2022-09-24T11:13:31;9.47;;;3.93;;
71975;SDS011;60680;52.182;5.398;2022-09-24T11:19:02;7.45;;;4.10;;
71975;SDS011;60680;52.182;5.398;2022-09-24T11:21:43;5.97;;;3.63;;
71975;SDS011;60680;52.182;5.398;2022-09-24T11:24:30;8.18;;;3.08;;
71975;SDS011;60680;52.182;5.398;2022-09-24T11:35:41;5.88;;;2.47;;
71975;SDS011;60680;52.182;5.398;2022-09-24T11:47:12;7.85;;;3.00;;
71975;SDS011;60680;52.182;5.398;2022-09-24T11:50:05;8.13;;;2.58;;
71975;SDS011;60680;52.182;5.398;2022-09-24T11:53:01;8.38;;;3.05;;
71975;SDS011;60680;52.182;5.398;2022-09-24T11:55:38;5.30;;;2.00;;
71975;SDS011;60680;52.182;5.398;2022-09-24T11:58:14;7.60;;;2.45;;
71975;SDS011;60680;52.182;5.398;2022-09-24T12:01:03;6.75;;;2.47;;
71975;SDS011;60680;52.182;5.398;2022-09-24T12:03:41;5.78;;;2.58;;
71975;SDS011;60680;52.182;5.398;2022-09-24T12:06:14;8.95;;;2.63;;
71975;SDS011;60680;52.182;5.398;2022-09-24T12:11:25;4.45;;;2.55;;
71975;SDS011;60680;52.182;5.398;2022-09-24T12:16:47;7.88;;;3.38;;
71975;SDS011;60680;52.182;5.398;2022-09-24T12:19:18;7.50;;;2.97;;
71975;SDS011;60680;52.182;5.398;2022-09-24T12:21:49;6.63;;;2.80;;
71975;SDS011;60680;52.182;5.398;2022-09-24T12:24:37;8.43;;;3.60;;
71975;SDS011;60680;52.182;5.398;2022-09-24T12:27:12;6.10;;;3.10;;
71975;SDS011;60680;52.182;5.398;2022-09-24T12:29:50;8.65;;;3.50;;
71975;SDS011;60680;52.182;5.398;2022-09-24T12:35:51;8.47;;;3.00;;
71975;SDS011;60680;52.182;5.398;2022-09-24T12:46:47;8.18;;;3.25;;
71975;SDS011;60680;52.182;5.398;2022-09-24T12:51:54;8.93;;;3.47;;
71975;SDS011;60680;52.182;5.398;2022-09-24T12:54:29;7.05;;;3.83;;
71975;SDS011;60680;52.182;5.398;2022-09-24T12:57:05;8.48;;;3.00;;
71975;SDS011;60680;52.182;5.398;2022-09-24T12:59:56;9.52;;;3.30;;
71975;SDS011;60680;52.182;5.398;2022-09-24T13:02:45;8.47;;;2.70;;
71975;SDS011;60680;52.182;5.398;2022-09-24T13:05:24;8.75;;;2.78;;
71975;SDS011;60680;52.182;5.398;2022-09-24T13:10:29;6.28;;;2.35;;
71975;SDS011;60680;52.182;5.398;2022-09-24T13:13:01;4.18;;;2.25;;
71975;SDS011;60680;52.182;5.398;2022-09-24T13:15:43;3.43;;;1.60;;
71975;SDS011;60680;52.182;5.398;2022-09-24T13:20:39;4.93;;;1.83;;
71975;SDS011;60680;52.182;5.398;2022-09-24T13:25:54;4.85;;;1.65;;
71975;SDS011;60680;52.182;5.398;2022-09-24T13:28:30;6.10;;;1.90;;
71975;SDS011;60680;52.182;5.398;2022-09-24T13:31:09;7.95;;;1.90;;
71975;SDS011;60680;52.182;5.398;2022-09-24T13:33:45;6.10;;;1.67;;
71975;SDS011;60680;52.182;5.398;2022-09-24T13:36:18;6.10;;;2.08;;
71975;SDS011;60680;52.182;5.398;2022-09-24T13:44:34;5.10;;;1.90;;
71975;SDS011;60680;52.182;5.398;2022-09-24T13:49:53;5.93;;;2.08;;
71975;SDS011;60680;52.182;5.398;2022-09-24T13:52:36;6.15;;;2.20;;
71975;SDS011;60680;52.182;5.398;2022-09-24T13:55:22;5.40;;;2.17;;
71975;SDS011;60680;52.182;5.398;2022-09-24T13:57:52;4.68;;;2.05;;
71975;SDS011;60680;52.182;5.398;2022-09-24T14:00:30;7.53;;;2.28;;
71975;SDS011;60680;52.182;5.398;2022-09-24T14:05:47;5.25;;;2.20;;
71975;SDS011;60680;52.182;5.398;2022-09-24T14:08:17;6.10;;;2.20;;
71975;SDS011;60680;52.182;5.398;2022-09-24T14:10:47;4.32;;;2.20;;
71975;SDS011;60680;52.182;5.398;2022-09-24T14:15:51;8.65;;;2.20;;
71975;SDS011;60680;52.182;5.398;2022-09-24T14:18:34;7.57;;;2.30;;
71975;SDS011;60680;52.182;5.398;2022-09-24T14:23:35;12.73;;;2.80;;
71975;SDS011;60680;52.182;5.398;2022-09-24T14:26:06;27.05;;;8.13;;
71975;SDS011;60680;52.182;5.398;2022-09-24T14:28:37;9.48;;;4.30;;
71975;SDS011;60680;52.182;5.398;2022-09-24T14:31:05;8.32;;;3.38;;
71975;SDS011;60680;52.182;5.398;2022-09-24T14:33:34;8.97;;;2.57;;
71975;SDS011;60680;52.182;5.398;2022-09-24T14:36:02;8.98;;;3.50;;
71975;SDS011;60680;52.182;5.398;2022-09-24T14:38:31;5.75;;;2.10;;
71975;SDS011;60680;52.182;5.398;2022-09-24T14:41:05;8.38;;;2.95;;
71975;SDS011;60680;52.182;5.398;2022-09-24T14:46:15;7.17;;;1.40;;
71975;SDS011;60680;52.182;5.398;2022-09-24T14:48:42;6.15;;;1.35;;
71975;SDS011;60680;52.182;5.398;2022-09-24T14:51:28;5.05;;;1.40;;
71975;SDS011;60680;52.182;5.398;2022-09-24T14:53:57;6.55;;;1.60;;
71975;SDS011;60680;52.182;5.398;2022-09-24T14:56:26;10.13;;;3.10;;
71975;SDS011;60680;52.182;5.398;2022-09-24T14:58:55;13.63;;;3.00;;
71975;SDS011;60680;52.182;5.398;2022-09-24T15:01:22;14.73;;;3.67;;
71975;SDS011;60680;52.182;5.398;2022-09-24T15:04:03;12.20;;;3.78;;
71975;SDS011;60680;52.182;5.398;2022-09-24T15:06:34;10.10;;;2.70;;
71975;SDS011;60680;52.182;5.398;2022-09-24T15:11:30;3.37;;;1.07;;
71975;SDS011;60680;52.182;5.398;2022-09-24T15:14:01;3.55;;;0.65;;
71975;SDS011;60680;52.182;5.398;2022-09-24T15:16:48;4.65;;;1.05;;
71975;SDS011;60680;52.182;5.398;2022-09-24T15:19:21;7.57;;;0.98;;
71975;SDS011;60680;52.182;5.398;2022-09-24T15:21:54;4.57;;;0.77;;
71975;SDS011;60680;52.182;5.398;2022-09-24T15:24:22;4.23;;;0.60;;
71975;SDS011;60680;52.182;5.398;2022-09-24T15:27:01;4.25;;;0.85;;
71975;SDS011;60680;52.182;5.398;2022-09-24T15:29:28;9.18;;;1.10;;
71975;SDS011;60680;52.182;5.398;2022-09-24T15:31:55;3.85;;;0.60;;
71975;SDS011;60680;52.182;5.398;2022-09-24T15:34:24;5.05;;;0.70;;
71975;SDS011;60680;52.182;5.398;2022-09-24T15:36:56;4.70;;;0.63;;
71975;SDS011;60680;52.182;5.398;2022-09-24T15:39:25;5.53;;;0.77;;
71975;SDS011;60680;52.182;5.398;2022-09-24T15:41:52;6.80;;;1.08;;
71975;SDS011;60680;52.182;5.398;2022-09-24T15:44:23;4.35;;;0.80;;
71975;SDS011;60680;52.182;5.398;2022-09-24T15:46:58;3.65;;;0.60;;
71975;SDS011;60680;52.182;5.398;2022-09-24T15:49:24;5.90;;;0.53;;
71975;SDS011;60680;52.182;5.398;2022-09-24T15:51:52;7.63;;;1.13;;
71975;SDS011;60680;52.182;5.398;2022-09-24T15:54:22;6.25;;;1.00;;
71975;SDS011;60680;52.182;5.398;2022-09-24T15:56:50;4.70;;;0.50;;
71975;SDS011;60680;52.182;5.398;2022-09-24T15:59:18;3.70;;;0.82;;
71975;SDS011;60680;52.182;5.398;2022-09-24T16:01:47;7.47;;;0.90;;
71975;SDS011;60680;52.182;5.398;2022-09-24T16:04:15;5.60;;;0.80;;
71975;SDS011;60680;52.182;5.398;2022-09-24T16:06:42;4.90;;;0.70;;
71975;SDS011;60680;52.182;5.398;2022-09-24T16:09:09;6.65;;;0.57;;
71975;SDS011;60680;52.182;5.398;2022-09-24T16:11:36;4.90;;;0.90;;
71975;SDS011;60680;52.182;5.398;2022-09-24T16:14:03;7.63;;;1.07;;
71975;SDS011;60680;52.182;5.398;2022-09-24T16:16:30;6.75;;;1.00;;
71975;SDS011;60680;52.182;5.398;2022-09-24T16:18:57;3.20;;;0.77;;
71975;SDS011;60680;52.182;5.398;2022-09-24T16:21:24;3.63;;;0.77;;
71975;SDS011;60680;52.182;5.398;2022-09-24T16:23:54;4.05;;;0.80;;
71975;SDS011;60680;52.182;5.398;2022-09-24T16:26:22;4.40;;;0.93;;
71975;SDS011;60680;52.182;5.398;2022-09-24T16:28:50;3.78;;;0.80;;
71975;SDS011;60680;52.182;5.398;2022-09-24T16:31:17;4.10;;;0.77;;
71975;SDS011;60680;52.182;5.398;2022-09-24T16:33:46;4.90;;;0.57;;
71975;SDS011;60680;52.182;5.398;2022-09-24T16:36:13;5.18;;;0.85;;
71975;SDS011;60680;52.182;5.398;2022-09-24T16:38:41;7.47;;;0.80;;
71975;SDS011;60680;52.182;5.398;2022-09-24T16:41:12;5.07;;;0.90;;
71975;SDS011;60680;52.182;5.398;2022-09-24T16:43:40;4.93;;;0.77;;
71975;SDS011;60680;52.182;5.398;2022-09-24T16:46:08;5.68;;;0.88;;
71975;SDS011;60680;52.182;5.398;2022-09-24T16:48:41;2.53;;;0.55;;
71975;SDS011;60680;52.182;5.398;2022-09-24T16:51:10;3.07;;;0.50;;
71975;SDS011;60680;52.182;5.398;2022-09-24T16:53:40;4.43;;;1.33;;
71975;SDS011;60680;52.182;5.398;2022-09-24T16:56:14;4.22;;;0.50;;
71975;SDS011;60680;52.182;5.398;2022-09-24T16:58:43;2.83;;;0.47;;
71975;SDS011;60680;52.182;5.398;2022-09-24T17:01:15;5.60;;;0.50;;
71975;SDS011;60680;52.182;5.398;2022-09-24T17:03:43;3.50;;;0.60;;
71975;SDS011;60680;52.182;5.398;2022-09-24T17:06:19;2.63;;;0.50;;
71975;SDS011;60680;52.182;5.398;2022-09-24T17:08:50;5.15;;;0.60;;